TUI14V EDDS-EDDM
Flight info
| Callsign | TUI14V |
|---|---|
| Flight time | 0h 23m |
| Altitude | 17000 |
| Route | ABTAL4H ABTAL L173 RIXED Y161 RIDAR Z98 WLD T104 ROKIL ROKIL1A |
| Aircraft | B38M/M-SDE1FGHILORVWXY/HB1 |
Departure
| Time | 2026-04-30 19:43 |
|---|---|
| Airport | Stuttgart Airport (EDDS) |
Arrival
| Time | 2026-04-30 20:06 |
|---|---|
| Airport | Munich Airport (EDDM) |
| Time | Latitude | Longitude | Altitude | Speed | Heading |
|---|---|---|---|---|---|
| 2026-04-30 19:21 | 48.68976 | 9.19840 | 1311 ft | 0 kts | 344° |
| 2026-04-30 19:36 | 48.68960 | 9.19847 | 1310 ft | 4 kts | 344° |
| 2026-04-30 19:36 | 48.68927 | 9.19884 | 1307 ft | 4 kts | 263° |
| 2026-04-30 19:37 | 48.68935 | 9.19921 | 1306 ft | 4 kts | 240° |
| 2026-04-30 19:37 | 48.68949 | 9.19955 | 1306 ft | 4 kts | 238° |
| 2026-04-30 19:37 | 48.68963 | 9.19989 | 1305 ft | 3 kts | 238° |
| 2026-04-30 19:37 | 48.68965 | 9.19993 | 1305 ft | 0 kts | 238° |
| 2026-04-30 19:40 | 48.68963 | 9.19989 | 1305 ft | 1 kts | 238° |
| 2026-04-30 19:41 | 48.68944 | 9.19941 | 1306 ft | 10 kts | 239° |
| 2026-04-30 19:41 | 48.68879 | 9.19879 | 1304 ft | 14 kts | 168° |
| 2026-04-30 19:41 | 48.68778 | 9.19945 | 1297 ft | 17 kts | 161° |
| 2026-04-30 19:41 | 48.68690 | 9.19983 | 1292 ft | 9 kts | 164° |
| 2026-04-30 19:42 | 48.68619 | 9.20021 | 1287 ft | 15 kts | 147° |
| 2026-04-30 19:42 | 48.68608 | 9.20194 | 1286 ft | 23 kts | 74° |
| 2026-04-30 19:42 | 48.68706 | 9.20710 | 1272 ft | 89 kts | 73° |
| 2026-04-30 19:42 | 48.68938 | 9.21938 | 1255 ft | 155 kts | 73° |
| 2026-04-30 19:43 | 48.69258 | 9.23636 | 1706 ft | 175 kts | 77° |
| 2026-04-30 19:43 | 48.69555 | 9.25474 | 2591 ft | 176 kts | 77° |
| 2026-04-30 19:43 | 48.69903 | 9.27283 | 3385 ft | 191 kts | 77° |
| 2026-04-30 19:44 | 48.70738 | 9.31530 | 4803 ft | 221 kts | 76° |
| 2026-04-30 19:44 | 48.71181 | 9.33782 | 5760 ft | 228 kts | 76° |
| 2026-04-30 19:44 | 48.71633 | 9.36193 | 6449 ft | 247 kts | 76° |
| 2026-04-30 19:44 | 48.72121 | 9.38783 | 7134 ft | 261 kts | 75° |
| 2026-04-30 19:45 | 48.72614 | 9.41394 | 8151 ft | 262 kts | 75° |
| 2026-04-30 19:45 | 48.73119 | 9.44075 | 9111 ft | 267 kts | 75° |
| 2026-04-30 19:45 | 48.73633 | 9.46802 | 10096 ft | 271 kts | 75° |
| 2026-04-30 19:45 | 48.74157 | 9.49586 | 10849 ft | 282 kts | 75° |
| 2026-04-30 19:46 | 48.74709 | 9.52543 | 11308 ft | 302 kts | 76° |
| 2026-04-30 19:46 | 48.74873 | 9.55797 | 11687 ft | 322 kts | 97° |
| 2026-04-30 19:46 | 48.74427 | 9.59218 | 12128 ft | 339 kts | 100° |
| 2026-04-30 19:46 | 48.73976 | 9.62777 | 12835 ft | 346 kts | 99° |
| 2026-04-30 19:47 | 48.73526 | 9.66374 | 13711 ft | 349 kts | 98° |
| 2026-04-30 19:47 | 48.73228 | 9.68771 | 14204 ft | 352 kts | 98° |
| 2026-04-30 19:47 | 48.72624 | 9.73638 | 15175 ft | 357 kts | 98° |
| 2026-04-30 19:47 | 48.72162 | 9.77352 | 15879 ft | 362 kts | 98° |
| 2026-04-30 19:48 | 48.71575 | 9.81088 | 16567 ft | 369 kts | 108° |
| 2026-04-30 19:48 | 48.70601 | 9.84717 | 16737 ft | 372 kts | 109° |
| 2026-04-30 19:48 | 48.69664 | 9.88366 | 16884 ft | 372 kts | 108° |
| 2026-04-30 19:48 | 48.68746 | 9.92030 | 17052 ft | 373 kts | 108° |
| 2026-04-30 19:49 | 48.67837 | 9.95707 | 17233 ft | 373 kts | 107° |
| 2026-04-30 19:49 | 48.65963 | 10.03360 | 17284 ft | 403 kts | 107° |
| 2026-04-30 19:49 | 48.64995 | 10.07318 | 17308 ft | 409 kts | 107° |
| 2026-04-30 19:50 | 48.64004 | 10.11363 | 17321 ft | 411 kts | 107° |
| 2026-04-30 19:50 | 48.63006 | 10.15429 | 17340 ft | 412 kts | 107° |
| 2026-04-30 19:50 | 48.62010 | 10.19483 | 17334 ft | 412 kts | 107° |
| 2026-04-30 19:50 | 48.61010 | 10.23544 | 17335 ft | 410 kts | 107° |
| 2026-04-30 19:51 | 48.60021 | 10.27553 | 17342 ft | 407 kts | 107° |
| 2026-04-30 19:51 | 48.59034 | 10.31552 | 17347 ft | 406 kts | 107° |
| 2026-04-30 19:51 | 48.58046 | 10.35544 | 17347 ft | 406 kts | 107° |
| 2026-04-30 19:51 | 48.57056 | 10.39536 | 17344 ft | 406 kts | 107° |
| 2026-04-30 19:52 | 48.56066 | 10.43523 | 17348 ft | 406 kts | 107° |
| 2026-04-30 19:52 | 48.55075 | 10.47502 | 16959 ft | 403 kts | 107° |
| 2026-04-30 19:52 | 48.54105 | 10.51395 | 16485 ft | 400 kts | 107° |
| 2026-04-30 19:52 | 48.53127 | 10.55310 | 15935 ft | 397 kts | 107° |
| 2026-04-30 19:53 | 48.52159 | 10.59178 | 15343 ft | 393 kts | 108° |
| 2026-04-30 19:53 | 48.51198 | 10.63015 | 14800 ft | 390 kts | 108° |
| 2026-04-30 19:53 | 48.50243 | 10.66817 | 14230 ft | 386 kts | 108° |
| 2026-04-30 19:53 | 48.49294 | 10.70593 | 13594 ft | 383 kts | 108° |
| 2026-04-30 19:54 | 48.48355 | 10.74324 | 12984 ft | 379 kts | 108° |
| 2026-04-30 19:54 | 48.47422 | 10.78024 | 12366 ft | 376 kts | 109° |
| 2026-04-30 19:54 | 48.46492 | 10.81703 | 11773 ft | 374 kts | 109° |
| 2026-04-30 19:54 | 48.45575 | 10.85325 | 11480 ft | 364 kts | 108° |
| 2026-04-30 19:55 | 48.44703 | 10.88765 | 11456 ft | 347 kts | 108° |
| 2026-04-30 19:55 | 48.43857 | 10.92099 | 11240 ft | 336 kts | 108° |
| 2026-04-30 19:55 | 48.43040 | 10.95311 | 10779 ft | 322 kts | 109° |
| 2026-04-30 19:55 | 48.42257 | 10.98388 | 10334 ft | 311 kts | 109° |
| 2026-04-30 19:56 | 48.41491 | 11.01394 | 9849 ft | 301 kts | 109° |
| 2026-04-30 19:56 | 48.40751 | 11.04295 | 9347 ft | 292 kts | 109° |
| 2026-04-30 19:56 | 48.40030 | 11.07113 | 8856 ft | 285 kts | 109° |
| 2026-04-30 19:56 | 48.39330 | 11.09852 | 8379 ft | 278 kts | 109° |
| 2026-04-30 19:57 | 48.38642 | 11.12536 | 7903 ft | 272 kts | 109° |
| 2026-04-30 19:57 | 48.37968 | 11.15163 | 7438 ft | 267 kts | 109° |
| 2026-04-30 19:57 | 48.37306 | 11.17745 | 6972 ft | 262 kts | 110° |
| 2026-04-30 19:57 | 48.36653 | 11.20282 | 6494 ft | 258 kts | 110° |
| 2026-04-30 19:58 | 48.36020 | 11.22743 | 6037 ft | 254 kts | 110° |
| 2026-04-30 19:58 | 48.35389 | 11.25196 | 5559 ft | 250 kts | 109° |
| 2026-04-30 19:58 | 48.34767 | 11.27607 | 5098 ft | 245 kts | 109° |
| 2026-04-30 19:58 | 48.34155 | 11.29978 | 4626 ft | 242 kts | 109° |
| 2026-04-30 19:59 | 48.33550 | 11.32316 | 4167 ft | 238 kts | 109° |
| 2026-04-30 19:59 | 48.33128 | 11.34609 | 4058 ft | 216 kts | 94° |
| 2026-04-30 19:59 | 48.33341 | 11.38717 | 4095 ft | 193 kts | 84° |
| 2026-04-30 20:00 | 48.33500 | 11.40730 | 4048 ft | 188 kts | 85° |
| 2026-04-30 20:00 | 48.33648 | 11.42620 | 3995 ft | 176 kts | 84° |
| 2026-04-30 20:00 | 48.33783 | 11.44380 | 3963 ft | 164 kts | 84° |
| 2026-04-30 20:00 | 48.33913 | 11.46062 | 4064 ft | 163 kts | 84° |
| 2026-04-30 20:01 | 48.34175 | 11.49472 | 4018 ft | 163 kts | 85° |
| 2026-04-30 20:01 | 48.34303 | 11.51138 | 4005 ft | 163 kts | 85° |
| 2026-04-30 20:01 | 48.34433 | 11.52830 | 3997 ft | 163 kts | 85° |
| 2026-04-30 20:02 | 48.34693 | 11.56200 | 3991 ft | 163 kts | 85° |
| 2026-04-30 20:02 | 48.34824 | 11.57902 | 3936 ft | 165 kts | 84° |
| 2026-04-30 20:03 | 48.35065 | 11.61037 | 3614 ft | 130 kts | 85° |
| 2026-04-30 20:03 | 48.35166 | 11.62354 | 3480 ft | 125 kts | 85° |
| 2026-04-30 20:03 | 48.35265 | 11.63647 | 3306 ft | 124 kts | 86° |
| 2026-04-30 20:03 | 48.35364 | 11.64933 | 3128 ft | 124 kts | 86° |
| 2026-04-30 20:04 | 48.35464 | 11.66222 | 2959 ft | 124 kts | 85° |
| 2026-04-30 20:04 | 48.35563 | 11.67515 | 2796 ft | 125 kts | 85° |
| 2026-04-30 20:04 | 48.35663 | 11.68821 | 2593 ft | 128 kts | 85° |
| 2026-04-30 20:05 | 48.35874 | 11.71544 | 2222 ft | 136 kts | 84° |
| 2026-04-30 20:05 | 48.35983 | 11.72978 | 2028 ft | 139 kts | 84° |
| 2026-04-30 20:05 | 48.36202 | 11.75905 | 1643 ft | 146 kts | 82° |
| 2026-04-30 20:06 | 48.36326 | 11.77418 | 1502 ft | 140 kts | 84° |
| 2026-04-30 20:06 | 48.36421 | 11.78644 | 1484 ft | 85 kts | 83° |
| 2026-04-30 20:06 | 48.36433 | 11.79317 | 1476 ft | 51 kts | 111° |
| 2026-04-30 20:06 | 48.36330 | 11.79678 | 1484 ft | 21 kts | 113° |
| 2026-04-30 20:07 | 48.36320 | 11.79710 | 1481 ft | 0 kts | 114° |
| 2026-04-30 20:10 | 48.36319 | 11.79713 | 1488 ft | 1 kts | 114° |
| 2026-04-30 20:10 | 48.36305 | 11.79757 | 1485 ft | 9 kts | 120° |
| 2026-04-30 20:10 | 48.36237 | 11.79738 | 1481 ft | 17 kts | 249° |
| 2026-04-30 20:11 | 48.36195 | 11.79217 | 1488 ft | 29 kts | 263° |
| 2026-04-30 20:11 | 48.36170 | 11.78911 | 1488 ft | 30 kts | 263° |
| 2026-04-30 20:11 | 48.36146 | 11.78589 | 1488 ft | 29 kts | 262° |
| 2026-04-30 20:12 | 48.36099 | 11.77981 | 1488 ft | 26 kts | 263° |
| 2026-04-30 20:12 | 48.36080 | 11.77734 | 1488 ft | 17 kts | 264° |
| 2026-04-30 20:12 | 48.36013 | 11.77667 | 1484 ft | 14 kts | 175° |
| 2026-04-30 20:13 | 48.35907 | 11.77685 | 1483 ft | 16 kts | 173° |
| 2026-04-30 20:13 | 48.35861 | 11.77693 | 1477 ft | 6 kts | 173° |
| 2026-04-30 20:13 | 48.35846 | 11.77696 | 1488 ft | 2 kts | 173° |
| 2026-04-30 20:13 | 48.35825 | 11.77699 | 1488 ft | 4 kts | 173° |
| 2026-04-30 20:14 | 48.35785 | 11.77707 | 1484 ft | 7 kts | 172° |
| 2026-04-30 20:14 | 48.35723 | 11.77718 | 1488 ft | 12 kts | 173° |
| 2026-04-30 20:14 | 48.35615 | 11.77737 | 1488 ft | 20 kts | 174° |
| 2026-04-30 20:14 | 48.35452 | 11.77765 | 1488 ft | 25 kts | 174° |
| 2026-04-30 20:15 | 48.35337 | 11.77824 | 1488 ft | 15 kts | 113° |
| 2026-04-30 20:15 | 48.35344 | 11.77991 | 1477 ft | 17 kts | 83° |
| 2026-04-30 20:15 | 48.35330 | 11.78157 | 1479 ft | 15 kts | 144° |
| 2026-04-30 20:15 | 48.35222 | 11.78182 | 1488 ft | 17 kts | 174° |
| 2026-04-30 20:16 | 48.35120 | 11.78200 | 1488 ft | 10 kts | 173° |
| 2026-04-30 20:16 | 48.35082 | 11.78241 | 1479 ft | 8 kts | 91° |
| 2026-04-30 20:16 | 48.35086 | 11.78309 | 1474 ft | 6 kts | 83° |
| 2026-04-30 20:16 | 48.35089 | 11.78351 | 1479 ft | 0 kts | 84° |